Time;durP1;ratioP1;P1;durP2;ratioP2;P2;SDS_P1;SDS_P2;PMS_P1;PMS_P2;Temp;Humidity;BMP_temperature;BMP_pressure;BME280_temperature;BME280_humidity;BME280_pressure;Samples;Min_cycle;Max_cycle;Signal;HPM_P1;HPM_P2
2023/08/03 00:02:10;;;;;;;7.65;0.93;;;16.30;99.90;;;;;;5055698;28;20057;-75
2023/08/03 00:04:36;;;;;;;11.70;1.00;;;16.30;99.90;;;;;;5053616;28;20044;-74
2023/08/03 00:07:02;;;;;;;10.45;1.00;;;16.20;99.90;;;;;;5053388;28;20098;-72
2023/08/03 00:09:28;;;;;;;7.47;1.00;;;16.20;99.90;;;;;;5057201;28;20044;-76
2023/08/03 00:11:53;;;;;;;5.28;0.80;;;16.20;99.90;;;;;;5056271;28;20044;-77
2023/08/03 00:14:19;;;;;;;7.40;0.80;;;16.20;99.90;;;;;;5056973;28;20073;-72
2023/08/03 00:16:45;;;;;;;9.02;1.30;;;16.20;99.90;;;;;;5056080;28;20045;-72
2023/08/03 00:19:10;;;;;;;9.02;1.00;;;16.10;99.90;;;;;;5057290;28;20041;-75
2023/08/03 00:21:36;;;;;;;5.28;0.70;;;16.10;99.90;;;;;;5055993;28;20124;-72
2023/08/03 00:24:02;;;;;;;6.28;0.90;;;16.10;99.90;;;;;;5057121;28;20106;-75
2023/08/03 00:26:29;;;;;;;9.15;1.40;;;16.00;99.90;;;;;;5057637;28;20060;-72
2023/08/03 00:28:55;;;;;;;4.85;0.90;;;16.00;99.90;;;;;;5056833;28;20120;-72
2023/08/03 00:31:20;;;;;;;4.60;1.02;;;16.00;99.90;;;;;;5056829;28;20087;-73
2023/08/03 00:33:46;;;;;;;6.03;0.88;;;16.00;99.90;;;;;;5055818;28;20057;-72
2023/08/03 00:36:12;;;;;;;4.40;1.00;;;15.90;99.90;;;;;;5039347;28;20075;-73
2023/08/03 00:38:37;;;;;;;6.53;0.93;;;15.90;99.90;;;;;;5055746;28;20477;-73
2023/08/03 00:41:03;;;;;;;6.13;1.23;;;15.90;99.90;;;;;;5057371;28;20198;-74
2023/08/03 00:43:29;;;;;;;6.70;0.90;;;16.00;99.90;;;;;;5055651;28;20040;-74
2023/08/03 00:45:55;;;;;;;4.70;0.80;;;15.90;99.90;;;;;;5056619;28;20052;-73
2023/08/03 00:48:21;;;;;;;5.50;0.85;;;16.00;99.90;;;;;;5056705;28;20071;-74
2023/08/03 00:50:47;;;;;;;3.55;0.77;;;16.00;99.90;;;;;;5056672;28;20057;-74
2023/08/03 00:53:12;;;;;;;4.90;0.68;;;16.00;99.90;;;;;;5055411;28;20378;-74
2023/08/03 00:55:38;;;;;;;3.05;0.60;;;16.00;99.90;;;;;;5071965;28;20045;-74
2023/08/03 00:58:04;;;;;;;3.47;0.60;;;15.90;99.90;;;;;;5056256;28;20389;-73
2023/08/03 01:00:29;;;;;;;3.28;0.70;;;16.00;99.90;;;;;;5056684;28;20135;-72
2023/08/03 01:02:56;;;;;;;4.80;0.70;;;15.90;99.90;;;;;;5056259;28;20531;-73
2023/08/03 01:05:21;;;;;;;4.93;0.70;;;15.90;99.90;;;;;;5057176;28;20081;-72
2023/08/03 01:07:47;;;;;;;5.35;0.80;;;15.90;99.90;;;;;;5059709;28;20119;-74
2023/08/03 01:10:13;;;;;;;2.72;0.73;;;15.90;99.90;;;;;;5041281;28;20111;-74
2023/08/03 01:12:39;;;;;;;4.32;0.68;;;15.80;99.90;;;;;;5072035;28;20052;-74
2023/08/03 01:15:06;;;;;;;5.15;0.98;;;15.80;99.90;;;;;;5055243;28;20045;-74
2023/08/03 01:17:31;;;;;;;4.85;0.75;;;15.80;99.90;;;;;;5055039;28;20059;-73
2023/08/03 01:19:57;;;;;;;3.50;0.80;;;15.80;99.90;;;;;;5038473;28;20162;-74
2023/08/03 01:22:24;;;;;;;3.53;0.95;;;15.90;99.90;;;;;;5055034;28;20178;-73
2023/08/03 01:24:50;;;;;;;4.68;0.88;;;15.90;99.90;;;;;;5056014;28;20049;-74
2023/08/03 01:27:15;;;;;;;9.50;0.98;;;15.80;99.90;;;;;;5055774;28;20485;-75
2023/08/03 01:29:42;;;;;;;5.22;0.90;;;15.80;99.90;;;;;;5055969;28;20128;-74
2023/08/03 01:32:08;;;;;;;3.00;0.90;;;15.90;99.90;;;;;;5056013;28;20111;-73
2023/08/03 01:34:33;;;;;;;3.95;0.90;;;15.90;99.90;;;;;;5055992;28;20089;-72
2023/08/03 01:36:59;;;;;;;4.88;1.10;;;15.90;99.90;;;;;;5055788;28;20393;-71
2023/08/03 01:39:26;;;;;;;2.03;0.90;;;15.90;99.90;;;;;;5056153;28;20120;-71
2023/08/03 01:41:51;;;;;;;2.90;0.80;;;15.90;99.90;;;;;;5038160;28;20580;-73
2023/08/03 01:44:30;;;;;;;4.03;0.95;;;15.90;99.90;;;;;;5055734;28;20131;-70
2023/08/03 01:46:57;;;;;;;5.28;1.08;;;15.90;99.90;;;;;;5054398;28;20049;-71
2023/08/03 01:49:24;;;;;;;3.65;0.90;;;15.90;99.90;;;;;;5054340;28;20037;-71
2023/08/03 01:51:50;;;;;;;4.82;0.80;;;15.90;99.90;;;;;;5054278;28;20044;-71
2023/08/03 01:54:16;;;;;;;1.90;0.70;;;15.90;99.90;;;;;;5021812;28;20162;-71
2023/08/03 01:56:42;;;;;;;3.63;1.00;;;15.90;99.90;;;;;;5055791;28;20067;-72
2023/08/03 01:59:08;;;;;;;3.25;0.93;;;15.90;99.90;;;;;;5056208;28;20487;-73
2023/08/03 02:01:34;;;;;;;2.50;0.80;;;15.90;99.90;;;;;;5054660;28;20136;-69
2023/08/03 02:04:00;;;;;;;6.10;1.35;;;16.00;99.90;;;;;;5055274;28;20428;-73
2023/08/03 02:06:26;;;;;;;5.53;1.00;;;16.00;99.90;;;;;;5038494;28;20163;-71
2023/08/03 02:08:51;;;;;;;3.03;1.20;;;16.00;99.90;;;;;;5053961;28;20052;-72
2023/08/03 02:11:17;;;;;;;6.55;1.38;;;15.90;99.90;;;;;;5055422;28;20041;-72
2023/08/03 02:13:43;;;;;;;5.20;1.35;;;16.00;99.90;;;;;;5054193;28;20474;-71
2023/08/03 02:16:10;;;;;;;5.78;2.00;;;16.00;99.90;;;;;;5054198;28;20124;-71
2023/08/03 02:18:39;;;;;;;5.15;1.63;;;16.00;99.90;;;;;;5053800;28;20048;-70
2023/08/03 02:21:08;;;;;;;5.13;2.00;;;16.00;99.90;;;;;;5054942;28;20048;-72
2023/08/03 02:23:34;;;;;;;5.97;2.13;;;16.00;99.90;;;;;;5054988;28;20049;-73
2023/08/03 02:26:03;;;;;;;9.77;2.45;;;16.00;99.90;;;;;;5053801;28;20477;-73
2023/08/03 02:28:30;;;;;;;7.18;2.72;;;16.00;99.90;;;;;;5054733;28;20127;-74
2023/08/03 02:30:55;;;;;;;8.80;3.17;;;16.00;99.90;;;;;;5036612;28;20049;-72
2023/08/03 02:33:21;;;;;;;8.70;3.13;;;16.00;99.90;;;;;;5055376;28;20067;-73
2023/08/03 02:35:46;;;;;;;9.93;3.08;;;16.10;99.90;;;;;;5036789;28;20053;-72
2023/08/03 02:38:12;;;;;;;10.40;2.90;;;16.00;99.90;;;;;;5054583;28;20045;-76
2023/08/03 02:40:38;;;;;;;7.80;3.17;;;16.10;99.90;;;;;;5053674;28;20404;-72
2023/08/03 02:43:03;;;;;;;10.57;3.67;;;16.10;99.90;;;;;;5054480;28;20041;-73
2023/08/03 02:45:29;;;;;;;7.95;3.10;;;16.10;99.90;;;;;;5055335;28;20110;-74
2023/08/03 02:47:55;;;;;;;10.30;3.47;;;16.10;99.90;;;;;;5053134;28;20056;-73
2023/08/03 02:50:21;;;;;;;9.53;4.10;;;16.10;99.90;;;;;;5054449;28;20132;-72
2023/08/03 02:52:47;;;;;;;13.05;3.78;;;16.20;99.90;;;;;;5053164;28;20128;-70
2023/08/03 02:55:13;;;;;;;12.63;4.18;;;16.10;99.90;;;;;;5054255;28;20045;-70
2023/08/03 02:57:38;;;;;;;17.33;4.93;;;16.10;99.90;;;;;;5036743;28;20040;-72
2023/08/03 03:00:05;;;;;;;14.95;4.70;;;16.10;99.90;;;;;;5053173;28;20044;-70
2023/08/03 03:02:31;;;;;;;;;;;16.10;99.90;;;;;;5054644;28;20140;-69
2023/08/03 03:04:57;;;;;;;14.13;4.43;;;16.10;99.90;;;;;;5054898;28;20379;-70
2023/08/03 03:07:23;;;;;;;12.70;3.85;;;16.10;99.90;;;;;;5052985;28;20045;-72
2023/08/03 03:09:48;;;;;;;14.40;4.32;;;16.10;99.90;;;;;;5054074;28;20052;-70
2023/08/03 03:12:14;;;;;;;17.63;4.18;;;16.20;99.90;;;;;;5020757;28;20475;-70
2023/08/03 03:14:40;;;;;;;9.27;3.17;;;16.10;99.90;;;;;;5052810;28;20045;-71
2023/08/03 03:17:06;;;;;;;14.60;4.00;;;16.10;99.90;;;;;;5053934;28;20051;-69
2023/08/03 03:19:31;;;;;;;8.50;2.05;;;16.20;99.90;;;;;;5054158;28;20056;-74
2023/08/03 03:21:57;;;;;;;10.70;1.95;;;16.20;99.90;;;;;;5052720;28;20041;-75
2023/08/03 03:24:23;;;;;;;19.98;3.72;;;16.30;99.90;;;;;;5086429;28;20057;-73
2023/08/03 03:26:48;;;;;;;14.02;2.60;;;16.20;99.90;;;;;;5036197;28;20080;-73
2023/08/03 03:29:14;;;;;;;14.27;2.45;;;16.20;99.90;;;;;;5036045;28;20044;-72
2023/08/03 03:31:40;;;;;;;11.02;2.13;;;16.10;99.90;;;;;;5019388;28;20056;-77
2023/08/03 03:34:06;;;;;;;12.02;2.08;;;16.20;99.90;;;;;;5052465;28;20053;-74
2023/08/03 03:36:33;;;;;;;15.02;2.33;;;16.20;99.90;;;;;;5035803;28;20049;-74
2023/08/03 03:38:59;;;;;;;18.27;2.65;;;16.20;99.90;;;;;;5052693;28;20053;-72
2023/08/03 03:41:24;;;;;;;16.55;2.55;;;16.20;99.90;;;;;;5053596;28;20045;-73
2023/08/03 03:43:50;;;;;;;16.27;3.08;;;16.10;99.90;;;;;;5053084;28;20041;-77
2023/08/03 03:46:16;;;;;;;13.68;2.20;;;16.10;99.90;;;;;;5054250;28;20213;-72
2023/08/03 03:48:41;;;;;;;12.73;2.03;;;16.10;99.90;;;;;;5053081;28;20370;-72
2023/08/03 03:51:07;;;;;;;11.68;2.40;;;16.00;99.90;;;;;;5054112;28;20179;-72
2023/08/03 03:53:33;;;;;;;13.93;2.22;;;16.00;99.90;;;;;;5053380;28;20481;-74
2023/08/03 03:55:58;;;;;;;16.88;2.47;;;16.00;99.90;;;;;;5053238;28;20518;-73
2023/08/03 03:58:24;;;;;;;11.18;1.80;;;15.90;99.90;;;;;;5054051;28;20033;-75
2023/08/03 04:00:50;;;;;;;18.17;2.45;;;15.90;99.90;;;;;;5053349;28;20462;-75
2023/08/03 04:03:15;;;;;;;15.82;2.42;;;15.90;99.90;;;;;;5035542;28;20044;-73
2023/08/03 04:05:41;;;;;;;13.15;1.92;;;15.80;99.90;;;;;;5052867;28;20049;-75
2023/08/03 04:08:07;;;;;;;13.27;2.63;;;15.80;99.90;;;;;;5052807;28;20550;-74
2023/08/03 04:10:35;;;;;;;15.45;3.17;;;15.80;99.90;;;;;;5052467;28;20036;-75
2023/08/03 04:13:01;;;;;;;15.50;3.30;;;15.70;99.90;;;;;;5052086;28;20071;-74
2023/08/03 04:15:26;;;;;;;17.10;3.08;;;15.70;99.90;;;;;;5052246;28;20477;-76
2023/08/03 04:17:52;;;;;;;16.70;3.13;;;15.70;99.90;;;;;;5052512;28;20128;-73
2023/08/03 04:20:18;;;;;;;21.27;3.10;;;15.70;99.90;;;;;;5052793;28;20045;-75
2023/08/03 04:22:43;;;;;;;19.92;3.47;;;15.70;99.90;;;;;;5035415;28;20132;-74
2023/08/03 04:25:09;;;;;;;16.10;3.83;;;15.60;99.90;;;;;;5053330;28;20110;-77
2023/08/03 04:27:36;;;;;;;16.30;3.47;;;15.60;99.90;;;;;;5053961;28;20384;-76
2023/08/03 04:30:02;;;;;;;12.25;3.22;;;15.60;99.90;;;;;;5052982;28;20095;-76
2023/08/03 04:32:28;;;;;;;13.10;3.83;;;15.70;99.90;;;;;;5053311;28;20092;-74
2023/08/03 04:34:54;;;;;;;19.88;3.50;;;15.70;99.90;;;;;;5051835;28;20049;-76
2023/08/03 04:37:19;;;;;;;20.38;3.30;;;15.80;99.90;;;;;;5051928;28;20064;-74
2023/08/03 04:39:46;;;;;;;15.45;3.58;;;15.80;99.90;;;;;;5051905;28;20036;-74
2023/08/03 04:42:11;;;;;;;18.63;3.55;;;15.90;99.90;;;;;;5035351;28;20141;-75
2023/08/03 04:44:37;;;;;;;16.25;3.55;;;15.90;99.90;;;;;;5052572;28;20608;-76
2023/08/03 04:47:03;;;;;;;14.75;3.88;;;15.90;99.90;;;;;;5052956;28;20251;-77
2023/08/03 04:49:29;;;;;;;13.70;3.92;;;16.00;99.90;;;;;;5052394;28;20136;-75
2023/08/03 04:51:54;;;;;;;23.48;4.50;;;16.10;99.90;;;;;;5052540;28;20045;-75
2023/08/03 04:54:20;;;;;;;17.60;4.93;;;16.10;99.90;;;;;;5054693;28;20503;-76
2023/08/03 04:56:46;;;;;;;14.43;4.20;;;16.20;99.90;;;;;;5055470;28;20048;-74
2023/08/03 04:59:12;;;;;;;16.20;5.20;;;16.20;99.90;;;;;;5055446;28;20088;-78
2023/08/03 05:01:38;;;;;;;23.58;5.97;;;16.20;99.90;;;;;;5055667;28;20058;-75
2023/08/03 05:04:04;;;;;;;14.13;5.30;;;16.30;99.90;;;;;;5055772;28;20454;-76
2023/08/03 05:06:29;;;;;;;22.67;5.38;;;16.20;99.90;;;;;;5056124;28;20135;-74
2023/08/03 05:08:55;;;;;;;19.00;4.90;;;16.30;99.90;;;;;;5056403;28;20091;-78
2023/08/03 05:11:21;;;;;;;17.40;5.88;;;16.30;99.90;;;;;;5056269;28;20049;-75
2023/08/03 05:13:47;;;;;;;11.77;5.88;;;16.30;99.90;;;;;;5055098;28;20106;-75
2023/08/03 05:16:13;;;;;;;23.05;5.93;;;16.40;99.90;;;;;;5054975;28;20037;-76
2023/08/03 05:18:38;;;;;;;17.23;5.32;;;16.50;99.90;;;;;;5056496;28;20080;-76
2023/08/03 05:21:04;;;;;;;17.33;5.22;;;16.50;99.90;;;;;;5055902;28;20053;-75
2023/08/03 05:23:30;;;;;;;15.93;4.97;;;16.60;99.90;;;;;;5056549;28;20485;-77
2023/08/03 05:25:57;;;;;;;18.67;5.55;;;16.60;99.90;;;;;;5055325;28;20059;-75
2023/08/03 05:28:23;;;;;;;;;;;16.70;99.90;;;;;;5056892;28;20051;-78
2023/08/03 05:30:49;;;;;;;17.58;5.55;;;16.80;99.90;;;;;;5071792;28;19920;-77
2023/08/03 05:33:15;;;;;;;17.00;5.63;;;16.80;99.90;;;;;;5038025;28;20053;-77
2023/08/03 05:35:42;;;;;;;16.15;5.22;;;16.80;99.90;;;;;;5054934;28;20044;-77
2023/08/03 05:38:07;;;;;;;14.85;5.60;;;16.90;99.90;;;;;;5055843;28;20043;-76
2023/08/03 05:40:33;;;;;;;15.70;5.67;;;16.90;99.90;;;;;;5054888;28;20119;-75
2023/08/03 05:42:59;;;;;;;17.87;6.03;;;16.90;99.90;;;;;;5056355;28;20409;-76
2023/08/03 05:45:39;;;;;;;16.93;5.63;;;16.90;99.90;;;;;;5055817;28;20058;-74
2023/08/03 05:48:14;;;;;;;17.05;5.32;;;16.90;99.90;;;;;;5054506;28;20079;-73
2023/08/03 05:50:43;;;;;;;15.52;5.55;;;16.90;99.90;;;;;;5055639;28;20043;-76
2023/08/03 05:53:10;;;;;;;14.65;5.88;;;16.90;99.90;;;;;;5055626;28;20447;-75
2023/08/03 05:55:36;;;;;;;17.98;6.30;;;17.00;99.90;;;;;;5055696;28;20045;-78
2023/08/03 05:58:02;;;;;;;13.43;5.93;;;17.10;99.90;;;;;;5054741;28;20547;-76
2023/08/03 06:00:29;;;;;;;21.35;5.78;;;17.20;99.90;;;;;;5055503;28;20045;-75
2023/08/03 06:02:58;;;;;;;;;;;17.30;99.90;;;;;;5055728;28;20080;-78
2023/08/03 06:05:43;;;;;;;20.88;5.85;;;17.30;99.90;;;;;;5055271;28;19928;-76
2023/08/03 06:08:21;;;;;;;14.87;6.00;;;17.30;99.90;;;;;;5055290;28;20082;-77
2023/08/03 06:10:50;;;;;;;18.60;6.80;;;17.40;99.90;;;;;;5055494;28;20286;-75
2023/08/03 06:13:18;;;;;;;16.88;6.70;;;17.40;99.90;;;;;;5055163;28;20187;-75
2023/08/03 06:15:46;;;;;;;22.90;6.55;;;17.40;99.90;;;;;;5055434;28;20401;-76
2023/08/03 06:18:16;;;;;;;22.02;7.15;;;17.50;99.90;;;;;;5038030;28;20037;-78
2023/08/03 06:20:48;;;;;;;17.98;7.65;;;17.40;99.90;;;;;;5055011;28;20052;-75
2023/08/03 06:23:22;;;;;;;19.17;7.25;;;17.50;99.90;;;;;;5053945;28;20052;-75
2023/08/03 06:25:49;;;;;;;22.33;7.03;;;17.50;99.90;;;;;;5055017;28;20558;-76
2023/08/03 06:28:17;;;;;;;23.55;7.18;;;17.60;99.90;;;;;;5037532;28;20041;-78
2023/08/03 06:30:45;;;;;;;17.23;7.05;;;17.60;99.90;;;;;;5053907;28;20176;-76
2023/08/03 06:33:13;;;;;;;17.65;7.00;;;17.60;99.90;;;;;;5053501;28;20060;-74
2023/08/03 06:35:43;;;;;;;20.73;7.03;;;17.60;99.90;;;;;;5054934;28;20485;-80
2023/08/03 06:38:32;;;;;;;21.95;7.88;;;17.60;99.90;;;;;;5055085;28;20068;-74
2023/08/03 06:40:58;;;;;;;20.80;7.38;;;17.70;99.90;;;;;;5055206;28;20045;-79
2023/08/03 06:43:24;;;;;;;18.17;7.17;;;17.80;99.90;;;;;;5053786;28;20053;-74
2023/08/03 06:45:50;;;;;;;21.83;7.10;;;17.80;99.90;;;;;;5054753;28;20063;-77
2023/08/03 06:48:16;;;;;;;21.80;7.55;;;17.90;99.90;;;;;;5053022;28;20040;-75
2023/08/03 06:50:43;;;;;;;16.17;6.37;;;18.10;99.90;;;;;;5053235;28;20132;-74
2023/08/03 06:53:09;;;;;;;17.65;6.20;;;18.20;99.90;;;;;;5053612;28;20056;-78
2023/08/03 06:55:35;;;;;;;19.23;6.68;;;18.30;99.90;;;;;;5053597;28;20485;-78
2023/08/03 06:58:01;;;;;;;20.15;6.90;;;18.40;99.90;;;;;;5054406;28;20084;-74
2023/08/03 07:00:26;;;;;;;12.47;6.43;;;18.40;99.90;;;;;;5036693;28;20092;-76
2023/08/03 07:02:53;;;;;;;22.23;7.27;;;18.50;99.90;;;;;;5052992;28;20045;-73
2023/08/03 07:05:19;;;;;;;19.70;7.22;;;18.40;99.90;;;;;;5036855;28;20052;-74
2023/08/03 07:07:44;;;;;;;19.03;6.60;;;18.40;99.90;;;;;;5053131;28;20118;-75
2023/08/03 07:10:10;;;;;;;13.03;5.57;;;18.40;99.90;;;;;;5036672;28;20084;-74
2023/08/03 07:12:36;;;;;;;15.93;5.57;;;18.40;99.90;;;;;;5053765;28;20483;-76
2023/08/03 07:15:03;;;;;;;13.23;5.10;;;18.40;99.90;;;;;;5052920;28;20049;-75
2023/08/03 07:17:29;;;;;;;16.40;5.68;;;18.40;99.90;;;;;;5052916;28;20348;-76
2023/08/03 07:19:54;;;;;;;13.73;5.30;;;18.50;99.90;;;;;;5053965;28;20124;-75
2023/08/03 07:22:21;;;;;;;15.40;5.37;;;18.80;99.90;;;;;;5036189;28;20486;-75
2023/08/03 07:24:47;;;;;;;;;;;18.90;99.90;;;;;;5054326;28;20112;-73
2023/08/03 07:27:14;;;;;;;13.70;5.05;;;18.90;99.90;;;;;;5053904;28;20434;-74
2023/08/03 07:29:40;;;;;;;;;;;18.90;99.90;;;;;;5053035;28;20158;-74
2023/08/03 07:32:06;;;;;;;16.02;5.47;;;19.00;99.90;;;;;;5086428;28;20386;-76
2023/08/03 07:34:32;;;;;;;9.55;4.10;;;19.10;99.90;;;;;;5054439;28;20118;-77
2023/08/03 07:36:59;;;;;;;15.20;4.40;;;19.20;99.90;;;;;;5054446;28;20492;-78
2023/08/03 07:39:24;;;;;;;13.63;4.68;;;19.20;99.90;;;;;;5054706;28;20272;-77
2023/08/03 07:41:50;;;;;;;13.53;3.53;;;19.20;99.90;;;;;;5054310;28;20051;-77
2023/08/03 07:44:17;;;;;;;9.47;3.33;;;19.10;99.90;;;;;;5053301;28;20041;-78
2023/08/03 07:46:43;;;;;;;9.13;3.70;;;19.30;99.90;;;;;;5052772;28;20128;-77
2023/08/03 07:49:09;;;;;;;13.38;3.40;;;19.50;99.90;;;;;;5052798;28;20127;-80
2023/08/03 07:51:35;;;;;;;11.97;3.20;;;19.70;99.90;;;;;;5035989;28;20468;-78
2023/08/03 07:54:01;;;;;;;14.97;3.60;;;19.80;99.90;;;;;;5037362;28;20045;-82
2023/08/03 07:56:26;;;;;;;10.30;3.40;;;19.80;99.90;;;;;;5053056;28;20179;-79
2023/08/03 07:58:52;;;;;;;9.93;3.43;;;19.70;99.90;;;;;;5053603;28;20056;-81
2023/08/03 08:01:19;;;;;;;14.10;3.63;;;19.70;99.90;;;;;;5055450;28;20041;-82
2023/08/03 08:03:45;;;;;;;8.23;2.63;;;19.60;99.90;;;;;;5053964;28;20068;-82
2023/08/03 08:06:21;;;;;;;11.98;2.30;;;19.70;99.90;;;;;;5037126;28;20049;-81
2023/08/03 08:08:47;;;;;;;10.30;2.42;;;19.60;99.90;;;;;;5053075;28;20049;-82
2023/08/03 08:11:14;;;;;;;8.93;2.38;;;19.70;99.90;;;;;;5054101;28;20048;-82
2023/08/03 08:13:40;;;;;;;8.23;2.08;;;19.80;99.90;;;;;;5053930;28;20051;-87
2023/08/03 08:16:08;;;;;;;6.82;1.80;;;19.80;99.90;;;;;;5053749;28;20049;-79
2023/08/03 08:18:34;;;;;;;11.50;2.03;;;19.80;99.90;;;;;;5053380;28;20041;-80
2023/08/03 08:21:02;;;;;;;9.18;1.90;;;19.60;99.90;;;;;;5053745;28;20405;-79
2023/08/03 08:23:28;;;;;;;11.15;1.83;;;19.50;99.90;;;;;;5054362;28;20045;-78
2023/08/03 08:25:54;;;;;;;7.70;1.53;;;19.50;99.90;;;;;;5053441;28;20056;-78
2023/08/03 08:28:20;;;;;;;10.77;1.90;;;19.60;99.90;;;;;;5052694;28;20291;-80
2023/08/03 08:30:46;;;;;;;6.68;1.80;;;19.90;99.90;;;;;;5056596;28;20049;-79
2023/08/03 08:33:17;;;;;;;10.83;1.77;;;20.20;99.90;;;;;;5057176;28;20057;-83
2023/08/03 08:35:44;;;;;;;8.18;1.80;;;20.40;99.90;;;;;;5056366;28;20080;-75
2023/08/03 08:38:11;;;;;;;10.80;1.60;;;20.50;99.90;;;;;;5056385;28;20047;-79
2023/08/03 08:40:37;;;;;;;10.23;1.80;;;20.70;99.90;;;;;;5057458;28;20059;-80
2023/08/03 08:43:04;;;;;;;9.98;1.73;;;20.70;99.90;;;;;;5057638;28;20396;-81
2023/08/03 08:45:33;;;;;;;;;;;20.60;99.90;;;;;;5040331;28;20481;-83
2023/08/03 08:47:59;;;;;;;4.68;0.90;;;20.40;99.90;;;;;;5057698;28;19927;-82
2023/08/03 08:50:25;;;;;;;11.27;1.00;;;20.00;99.90;;;;;;5056575;28;20048;-80
2023/08/03 08:52:52;;;;;;;7.60;1.10;;;19.90;99.90;;;;;;5072739;28;20088;-82
2023/08/03 08:55:31;;;;;;;5.40;0.93;;;19.90;99.90;;;;;;5057305;28;20294;-78
2023/08/03 08:57:58;;;;;;;6.63;1.10;;;20.10;99.90;;;;;;5056230;28;20045;-81
2023/08/03 09:00:25;;;;;;;6.68;1.02;;;20.20;99.90;;;;;;5057288;28;20056;-80
2023/08/03 09:03:00;;;;;;;10.30;1.48;;;20.50;99.90;;;;;;5056283;28;20053;-80
2023/08/03 09:05:28;;;;;;;5.75;1.38;;;20.80;99.90;;;;;;5056853;28;20057;-83
2023/08/03 09:08:09;;;;;;;9.48;1.80;;;21.10;99.90;;;;;;5056019;28;20152;-79
2023/08/03 09:10:50;;;;;;;8.25;1.30;;;21.20;99.90;;;;;;5056419;28;20122;-82
2023/08/03 09:13:31;;;;;;;6.28;1.10;;;21.00;99.90;;;;;;5056665;28;20049;-74
2023/08/03 09:15:58;;;;;;;8.00;0.80;;;20.80;99.90;;;;;;5057057;28;20045;-78
2023/08/03 09:18:27;;;;;;;5.25;0.70;;;20.60;99.90;;;;;;5055728;28;20439;-77
2023/08/03 09:21:15;;;;;;;7.93;0.88;;;20.50;99.90;;;;;;5057270;28;20481;-83
2023/08/03 09:23:41;;;;;;;9.73;1.08;;;20.40;99.90;;;;;;5062492;28;20045;-82
2023/08/03 09:26:08;;;;;;;6.15;0.82;;;20.50;99.90;;;;;;5061776;28;20064;-79
2023/08/03 09:28:41;;;;;;;4.82;0.88;;;20.60;99.90;;;;;;5057055;28;20041;-79
2023/08/03 09:31:08;;;;;;;4.45;0.70;;;20.70;99.90;;;;;;5057571;28;20053;-80
2023/08/03 09:33:34;;;;;;;6.38;1.00;;;20.70;99.90;;;;;;5057451;28;20076;-82
2023/08/03 09:36:10;;;;;;;4.28;0.65;;;20.80;99.90;;;;;;5056978;28;20451;-79
2023/08/03 09:38:37;;;;;;;4.20;0.63;;;21.00;99.90;;;;;;5057129;28;20143;-82
2023/08/03 09:41:03;;;;;;;6.95;1.00;;;21.10;99.90;;;;;;5055096;28;20056;-81
2023/08/03 09:43:31;;;;;;;5.45;0.60;;;21.20;99.90;;;;;;5040747;28;20061;-78
2023/08/03 09:45:57;;;;;;;6.38;0.60;;;21.20;99.90;;;;;;5056068;28;20084;-80
2023/08/03 09:48:24;;;;;;;9.65;0.93;;;21.10;99.90;;;;;;5057296;28;20037;-79
2023/08/03 09:50:51;;;;;;;;;;;21.00;99.90;;;;;;5058092;28;20049;-81
2023/08/03 09:53:21;;;;;;;6.22;0.85;;;21.00;99.90;;;;;;5056525;28;19964;-79
2023/08/03 09:55:53;;;;;;;11.35;0.88;;;21.20;99.90;;;;;;5055999;28;20076;-80
2023/08/03 09:58:23;;;;;;;6.43;0.90;;;21.40;99.90;;;;;;5055586;28;20048;-77
2023/08/03 10:00:51;;;;;;;10.05;1.05;;;21.50;99.90;;;;;;5057502;28;20045;-81
2023/08/03 10:03:18;;;;;;;4.80;0.90;;;21.40;99.90;;;;;;5056440;28;20052;-84
2023/08/03 10:05:57;;;;;;;7.35;0.73;;;21.30;99.90;;;;;;5056506;28;20045;-78
2023/08/03 10:08:56;;;;;;;7.32;0.98;;;21.20;99.90;;;;;;5057082;28;20043;-82
2023/08/03 10:11:28;;;;;;;5.75;0.70;;;21.30;99.90;;;;;;5056994;28;20045;-83
2023/08/03 10:13:58;;;;;;;7.13;0.90;;;21.40;99.90;;;;;;5039575;28;20130;-76
2023/08/03 10:16:24;;;;;;;6.30;0.80;;;21.60;99.90;;;;;;5056197;28;20049;-78
2023/08/03 10:18:51;;;;;;;5.75;0.77;;;21.70;99.90;;;;;;5057134;28;20045;-79
2023/08/03 10:21:17;;;;;;;7.07;0.75;;;22.00;99.90;;;;;;5054317;28;20191;-81
2023/08/03 10:24:10;;;;;;;4.40;0.65;;;22.00;99.90;;;;;;5056321;28;20060;-80
2023/08/03 10:26:36;;;;;;;5.95;0.70;;;22.10;99.90;;;;;;5055173;28;20081;-78
2023/08/03 10:29:03;;;;;;;9.80;0.77;;;21.90;99.90;;;;;;5055643;28;20052;-80
2023/08/03 10:31:30;;;;;;;9.95;0.82;;;21.80;99.90;;;;;;5057482;28;20056;-77
2023/08/03 10:33:56;;;;;;;11.00;0.98;;;21.90;99.90;;;;;;5056325;28;20067;-78
2023/08/03 10:36:28;;;;;;;8.87;1.07;;;22.00;99.90;;;;;;5056816;28;20050;-83
2023/08/03 10:39:01;;;;;;;8.35;1.10;;;21.90;99.90;;;;;;5054621;28;20049;-74
2023/08/03 10:41:30;;;;;;;8.55;0.90;;;22.00;99.90;;;;;;5056299;28;20485;-80
2023/08/03 10:44:20;;;;;;;10.48;1.67;;;21.90;99.90;;;;;;5055059;28;20115;-83
2023/08/03 10:46:47;;;;;;;9.10;1.00;;;21.80;99.90;;;;;;5055504;28;20064;-78
2023/08/03 10:49:19;;;;;;;6.38;1.10;;;21.90;99.90;;;;;;5038097;28;20110;-75
2023/08/03 10:51:46;;;;;;;12.02;1.15;;;22.10;99.90;;;;;;5054720;28;20052;-74
2023/08/03 10:54:12;;;;;;;8.43;1.23;;;22.20;99.90;;;;;;5054782;28;20373;-76
2023/08/03 10:56:37;;;;;;;6.03;1.38;;;22.20;99.90;;;;;;5055284;28;20059;-76
2023/08/03 10:59:04;;;;;;;7.80;1.03;;;22.10;99.90;;;;;;5054294;28;20087;-76
2023/08/03 11:01:30;;;;;;;8.43;1.52;;;22.10;99.90;;;;;;5054729;28;20484;-75
2023/08/03 11:03:58;;;;;;;7.05;0.95;;;22.20;99.90;;;;;;5054216;28;20081;-73
2023/08/03 11:06:27;;;;;;;7.35;1.55;;;22.30;99.90;;;;;;5054266;28;20041;-77
2023/08/03 11:08:54;;;;;;;4.60;1.13;;;22.30;99.90;;;;;;5054402;28;20120;-77
2023/08/03 11:11:27;;;;;;;6.20;1.58;;;22.40;99.90;;;;;;5053008;28;20428;-73
2023/08/03 11:13:53;;;;;;;9.80;1.33;;;22.50;99.90;;;;;;5054064;28;20478;-75
2023/08/03 11:16:20;;;;;;;9.33;1.10;;;22.40;99.90;;;;;;5052846;28;20080;-77
2023/08/03 11:18:46;;;;;;;6.88;1.20;;;22.20;99.90;;;;;;5053893;28;20048;-77
2023/08/03 11:21:12;;;;;;;5.68;1.40;;;22.00;99.90;;;;;;5052972;28;20049;-73
2023/08/03 11:23:38;;;;;;;7.47;0.90;;;21.70;99.90;;;;;;5054297;28;20493;-76
2023/08/03 11:26:06;;;;;;;7.07;0.87;;;21.70;99.90;;;;;;5036543;28;20061;-74
2023/08/03 11:28:43;;;;;;;7.50;0.98;;;21.60;99.90;;;;;;5052642;28;20202;-76
2023/08/03 11:31:20;;;;;;;10.18;0.98;;;21.70;99.90;;;;;;5053607;28;20535;-73
2023/08/03 11:33:54;;;;;;;7.85;0.90;;;21.80;99.90;;;;;;5037048;28;20053;-76
2023/08/03 11:36:21;;;;;;;8.05;1.00;;;21.90;99.90;;;;;;5036996;28;20045;-73
2023/08/03 11:38:48;;;;;;;11.25;0.73;;;22.10;99.90;;;;;;5053728;28;20087;-80
2023/08/03 11:41:18;;;;;;;7.13;0.90;;;22.30;99.90;;;;;;5054458;28;20049;-75
2023/08/03 11:43:44;;;;;;;4.47;0.70;;;22.30;99.90;;;;;;5053450;28;20535;-73
2023/08/03 11:46:09;;;;;;;7.90;0.90;;;22.40;99.90;;;;;;5053450;28;20052;-75
2023/08/03 11:48:35;;;;;;;5.00;1.00;;;22.40;99.90;;;;;;5052690;28;20045;-74
2023/08/03 11:51:01;;;;;;;5.93;0.83;;;22.40;99.90;;;;;;5052989;28;20045;-78
2023/08/03 11:53:31;;;;;;;9.43;0.88;;;22.40;99.90;;;;;;5052541;28;20088;-79
2023/08/03 11:56:00;;;;;;;9.05;0.98;;;22.40;99.90;;;;;;5054003;28;20060;-78
2023/08/03 11:58:27;;;;;;;6.43;0.82;;;22.50;99.90;;;;;;5055243;28;20047;-76
2023/08/03 12:01:00;;;;;;;11.10;1.10;;;22.60;99.90;;;;;;5053720;28;20045;-77
2023/08/03 12:03:36;;;;;;;10.52;0.98;;;22.70;99.90;;;;;;5053260;28;20057;-81
2023/08/03 12:06:10;;;;;;;5.57;0.80;;;22.60;99.90;;;;;;5052394;28;20053;-77
2023/08/03 12:08:47;;;;;;;10.13;1.05;;;22.60;99.90;;;;;;5053466;28;20041;-77
2023/08/03 12:11:17;;;;;;;10.95;1.20;;;22.80;99.90;;;;;;5053138;28;20044;-78
2023/08/03 12:13:46;;;;;;;12.88;1.35;;;22.60;99.90;;;;;;5052286;28;20098;-77
2023/08/03 12:16:12;;;;;;;12.02;1.48;;;22.60;99.90;;;;;;5053032;28;20068;-76
2023/08/03 12:18:37;;;;;;;10.70;1.13;;;22.60;99.90;;;;;;5052215;28;20041;-75
2023/08/03 12:21:03;;;;;;;10.13;1.40;;;22.70;99.90;;;;;;5035718;28;20045;-75
2023/08/03 12:23:29;;;;;;;13.40;1.17;;;22.80;99.90;;;;;;5035561;28;20048;-76
2023/08/03 12:25:55;;;;;;;13.40;1.67;;;22.80;99.90;;;;;;5052257;28;20775;-75
2023/08/03 12:28:21;;;;;;;10.40;1.20;;;22.70;99.90;;;;;;5035593;28;20094;-76
2023/08/03 12:30:47;;;;;;;9.07;1.38;;;22.60;99.90;;;;;;5035814;28;20513;-74
2023/08/03 12:33:13;;;;;;;11.13;1.20;;;22.60;99.90;;;;;;5051571;28;20463;-73
2023/08/03 12:35:39;;;;;;;8.57;1.10;;;22.60;99.90;;;;;;5053274;28;20049;-75
2023/08/03 12:38:05;;;;;;;8.27;1.10;;;22.70;99.90;;;;;;5052354;28;20290;-76
2023/08/03 12:40:30;;;;;;;7.87;1.20;;;22.60;99.90;;;;;;5052761;28;20049;-77
2023/08/03 12:42:56;;;;;;;12.45;1.45;;;22.90;99.90;;;;;;5053503;28;20167;-76
2023/08/03 12:45:25;;;;;;;10.07;1.30;;;23.10;99.90;;;;;;5052917;28;20048;-75